sensor_id;sensor_type;location;lat;lon;timestamp;P1;durP1;ratioP1;P2;durP2;ratioP2
77089;SDS011;66028;53.558;9.950;2022-12-29T12:02:30;4.10;;;0.50;;
77089;SDS011;66028;53.558;9.950;2022-12-29T12:08:18;2.63;;;0.60;;
77089;SDS011;66028;53.558;9.950;2022-12-29T12:11:14;5.15;;;0.70;;
77089;SDS011;66028;53.558;9.950;2022-12-29T12:17:06;2.67;;;0.20;;
77089;SDS011;66028;53.558;9.950;2022-12-29T12:19:59;3.60;;;0.40;;
77089;SDS011;66028;53.558;9.950;2022-12-29T12:26:04;4.60;;;0.80;;
77089;SDS011;66028;53.558;9.950;2022-12-29T12:29:16;3.33;;;0.60;;
77089;SDS011;66028;53.558;9.950;2022-12-29T12:32:15;3.53;;;0.50;;
77089;SDS011;66028;53.558;9.950;2022-12-29T12:35:07;3.75;;;0.80;;
77089;SDS011;66028;53.558;9.950;2022-12-29T12:38:05;3.65;;;0.55;;
77089;SDS011;66028;53.558;9.950;2022-12-29T12:41:17;3.00;;;0.63;;
77089;SDS011;66028;53.558;9.950;2022-12-29T12:44:18;3.53;;;0.88;;
77089;SDS011;66028;53.558;9.950;2022-12-29T13:02:46;6.20;;;1.40;;
77089;SDS011;66028;53.558;9.950;2022-12-29T13:09:11;6.43;;;1.42;;
77089;SDS011;66028;53.558;9.950;2022-12-29T13:15:39;3.67;;;0.80;;
77089;SDS011;66028;53.558;9.950;2022-12-29T13:18:44;4.53;;;1.30;;
77089;SDS011;66028;53.558;9.950;2022-12-29T13:21:49;4.93;;;0.93;;
77089;SDS011;66028;53.558;9.950;2022-12-29T13:25:14;3.05;;;0.55;;
77089;SDS011;66028;53.558;9.950;2022-12-29T13:28:20;3.25;;;0.77;;
77089;SDS011;66028;53.558;9.950;2022-12-29T13:31:24;3.70;;;1.02;;
77089;SDS011;66028;53.558;9.950;2022-12-29T13:34:24;5.18;;;1.20;;
77089;SDS011;66028;53.558;9.950;2022-12-29T13:37:25;3.95;;;0.82;;
77089;SDS011;66028;53.558;9.950;2022-12-29T13:40:14;3.28;;;0.77;;
77089;SDS011;66028;53.558;9.950;2022-12-29T13:43:04;3.67;;;1.00;;
77089;SDS011;66028;53.558;9.950;2022-12-29T13:45:55;6.13;;;1.00;;
77089;SDS011;66028;53.558;9.950;2022-12-29T13:48:46;5.32;;;1.60;;
77089;SDS011;66028;53.558;9.950;2022-12-29T13:51:37;4.72;;;1.73;;
77089;SDS011;66028;53.558;9.950;2022-12-29T13:55:07;4.75;;;1.00;;
77089;SDS011;66028;53.558;9.950;2022-12-29T13:58:12;3.35;;;1.00;;
77089;SDS011;66028;53.558;9.950;2022-12-29T14:04:23;5.70;;;1.58;;
77089;SDS011;66028;53.558;9.950;2022-12-29T14:07:13;4.18;;;0.98;;
77089;SDS011;66028;53.558;9.950;2022-12-29T14:10:02;4.97;;;1.00;;
77089;SDS011;66028;53.558;9.950;2022-12-29T14:12:48;2.00;;;0.55;;
77089;SDS011;66028;53.558;9.950;2022-12-29T14:15:37;3.15;;;0.57;;
77089;SDS011;66028;53.558;9.950;2022-12-29T14:24:59;4.15;;;0.50;;
77089;SDS011;66028;53.558;9.950;2022-12-29T14:30:06;4.85;;;0.70;;
77089;SDS011;66028;53.558;9.950;2022-12-29T14:33:33;3.97;;;0.60;;
77089;SDS011;66028;53.558;9.950;2022-12-29T14:36:21;5.28;;;0.80;;
77089;SDS011;66028;53.558;9.950;2022-12-29T14:42:28;3.88;;;0.95;;
77089;SDS011;66028;53.558;9.950;2022-12-29T14:48:00;3.50;;;0.70;;
77089;SDS011;66028;53.558;9.950;2022-12-29T14:50:46;5.63;;;0.70;;
77089;SDS011;66028;53.558;9.950;2022-12-29T14:53:48;4.20;;;0.93;;
77089;SDS011;66028;53.558;9.950;2022-12-29T14:56:36;4.50;;;0.80;;
77089;SDS011;66028;53.558;9.950;2022-12-29T14:59:23;2.65;;;1.00;;
77089;SDS011;66028;53.558;9.950;2022-12-29T15:02:17;5.45;;;0.95;;
77089;SDS011;66028;53.558;9.950;2022-12-29T15:05:24;5.65;;;0.88;;
77089;SDS011;66028;53.558;9.950;2022-12-29T15:08:16;3.75;;;0.95;;
77089;SDS011;66028;53.558;9.950;2022-12-29T15:11:06;4.82;;;1.35;;
77089;SDS011;66028;53.558;9.950;2022-12-29T15:13:58;6.22;;;0.80;;
77089;SDS011;66028;53.558;9.950;2022-12-29T15:16:44;4.22;;;0.88;;
77089;SDS011;66028;53.558;9.950;2022-12-29T15:19:29;7.57;;;1.20;;
77089;SDS011;66028;53.558;9.950;2022-12-29T15:22:15;6.25;;;1.70;;
77089;SDS011;66028;53.558;9.950;2022-12-29T15:25:01;6.47;;;1.63;;
77089;SDS011;66028;53.558;9.950;2022-12-29T15:27:48;4.88;;;1.50;;
77089;SDS011;66028;53.558;9.950;2022-12-29T15:30:37;5.72;;;1.20;;
77089;SDS011;66028;53.558;9.950;2022-12-29T15:33:38;5.75;;;1.20;;
77089;SDS011;66028;53.558;9.950;2022-12-29T15:36:26;6.47;;;2.00;;
77089;SDS011;66028;53.558;9.950;2022-12-29T15:39:20;5.05;;;1.95;;
77089;SDS011;66028;53.558;9.950;2022-12-29T15:48:02;5.32;;;1.60;;
77089;SDS011;66028;53.558;9.950;2022-12-29T15:50:49;8.40;;;2.30;;
77089;SDS011;66028;53.558;9.950;2022-12-29T15:53:36;4.07;;;1.52;;
77089;SDS011;66028;53.558;9.950;2022-12-29T15:56:21;6.60;;;2.10;;
77089;SDS011;66028;53.558;9.950;2022-12-29T16:02:11;4.10;;;1.88;;
77089;SDS011;66028;53.558;9.950;2022-12-29T16:04:56;5.40;;;1.77;;
77089;SDS011;66028;53.558;9.950;2022-12-29T16:07:55;7.30;;;2.80;;
77089;SDS011;66028;53.558;9.950;2022-12-29T16:10:42;5.68;;;2.50;;
77089;SDS011;66028;53.558;9.950;2022-12-29T16:13:30;7.10;;;2.25;;
77089;SDS011;66028;53.558;9.950;2022-12-29T16:16:23;8.55;;;3.15;;
77089;SDS011;66028;53.558;9.950;2022-12-29T16:19:35;7.53;;;2.70;;
77089;SDS011;66028;53.558;9.950;2022-12-29T16:25:32;5.80;;;2.28;;
77089;SDS011;66028;53.558;9.950;2022-12-29T16:28:40;7.78;;;2.13;;
77089;SDS011;66028;53.558;9.950;2022-12-29T16:31:49;6.80;;;1.88;;
77089;SDS011;66028;53.558;9.950;2022-12-29T16:37:29;9.57;;;2.20;;
77089;SDS011;66028;53.558;9.950;2022-12-29T16:43:18;4.40;;;1.23;;
77089;SDS011;66028;53.558;9.950;2022-12-29T16:46:14;3.50;;;1.00;;
77089;SDS011;66028;53.558;9.950;2022-12-29T16:49:02;2.15;;;0.95;;
77089;SDS011;66028;53.558;9.950;2022-12-29T16:51:48;5.35;;;1.20;;
77089;SDS011;66028;53.558;9.950;2022-12-29T16:54:35;4.45;;;1.70;;
77089;SDS011;66028;53.558;9.950;2022-12-29T16:57:23;4.40;;;1.40;;
77089;SDS011;66028;53.558;9.950;2022-12-29T17:00:17;7.18;;;1.73;;
77089;SDS011;66028;53.558;9.950;2022-12-29T17:03:04;5.05;;;1.63;;
77089;SDS011;66028;53.558;9.950;2022-12-29T17:05:51;6.95;;;1.63;;
77089;SDS011;66028;53.558;9.950;2022-12-29T17:08:40;9.43;;;1.92;;
77089;SDS011;66028;53.558;9.950;2022-12-29T17:11:33;14.45;;;3.28;;
77089;SDS011;66028;53.558;9.950;2022-12-29T17:17:40;5.78;;;2.28;;
77089;SDS011;66028;53.558;9.950;2022-12-29T17:20:28;9.60;;;2.55;;
77089;SDS011;66028;53.558;9.950;2022-12-29T17:23:15;7.72;;;2.40;;
77089;SDS011;66028;53.558;9.950;2022-12-29T17:26:01;8.27;;;2.25;;
77089;SDS011;66028;53.558;9.950;2022-12-29T17:28:47;10.20;;;2.40;;
77089;SDS011;66028;53.558;9.950;2022-12-29T17:31:32;7.72;;;2.53;;
77089;SDS011;66028;53.558;9.950;2022-12-29T17:34:18;10.63;;;2.38;;
77089;SDS011;66028;53.558;9.950;2022-12-29T17:37:10;12.15;;;5.30;;
77089;SDS011;66028;53.558;9.950;2022-12-29T17:40:13;10.15;;;3.58;;
77089;SDS011;66028;53.558;9.950;2022-12-29T17:43:00;10.07;;;2.08;;
77089;SDS011;66028;53.558;9.950;2022-12-29T17:45:46;8.30;;;2.33;;
77089;SDS011;66028;53.558;9.950;2022-12-29T17:48:37;5.70;;;2.15;;
77089;SDS011;66028;53.558;9.950;2022-12-29T17:51:22;4.03;;;1.88;;
77089;SDS011;66028;53.558;9.950;2022-12-29T17:54:20;5.22;;;1.67;;
77089;SDS011;66028;53.558;9.950;2022-12-29T17:57:14;5.00;;;2.17;;
77089;SDS011;66028;53.558;9.950;2022-12-29T18:00:01;7.45;;;2.92;;
77089;SDS011;66028;53.558;9.950;2022-12-29T18:02:47;10.25;;;3.20;;
77089;SDS011;66028;53.558;9.950;2022-12-29T18:05:33;9.48;;;3.28;;
77089;SDS011;66028;53.558;9.950;2022-12-29T18:08:19;5.35;;;2.03;;
77089;SDS011;66028;53.558;9.950;2022-12-29T18:11:18;3.28;;;1.77;;
77089;SDS011;66028;53.558;9.950;2022-12-29T18:14:16;5.30;;;1.63;;
77089;SDS011;66028;53.558;9.950;2022-12-29T18:17:07;8.48;;;2.25;;
77089;SDS011;66028;53.558;9.950;2022-12-29T18:19:56;7.70;;;1.77;;
77089;SDS011;66028;53.558;9.950;2022-12-29T18:22:42;7.88;;;2.17;;
77089;SDS011;66028;53.558;9.950;2022-12-29T18:25:39;9.07;;;2.50;;
77089;SDS011;66028;53.558;9.950;2022-12-29T18:28:28;8.45;;;2.13;;
77089;SDS011;66028;53.558;9.950;2022-12-29T18:31:15;4.65;;;1.95;;
77089;SDS011;66028;53.558;9.950;2022-12-29T18:34:11;8.85;;;2.47;;
77089;SDS011;66028;53.558;9.950;2022-12-29T18:36:58;8.63;;;2.38;;
77089;SDS011;66028;53.558;9.950;2022-12-29T18:39:45;8.15;;;2.72;;
77089;SDS011;66028;53.558;9.950;2022-12-29T18:42:31;12.07;;;2.72;;
77089;SDS011;66028;53.558;9.950;2022-12-29T18:45:18;13.98;;;3.47;;
77089;SDS011;66028;53.558;9.950;2022-12-29T18:48:05;9.23;;;3.13;;
77089;SDS011;66028;53.558;9.950;2022-12-29T18:50:50;8.48;;;3.35;;
77089;SDS011;66028;53.558;9.950;2022-12-29T18:53:37;9.27;;;3.38;;
77089;SDS011;66028;53.558;9.950;2022-12-29T18:56:23;8.82;;;3.13;;
77089;SDS011;66028;53.558;9.950;2022-12-29T18:59:08;9.07;;;3.15;;
77089;SDS011;66028;53.558;9.950;2022-12-29T19:01:54;8.68;;;3.25;;
77089;SDS011;66028;53.558;9.950;2022-12-29T19:04:39;10.20;;;3.60;;
77089;SDS011;66028;53.558;9.950;2022-12-29T19:07:25;12.35;;;4.78;;
77089;SDS011;66028;53.558;9.950;2022-12-29T19:10:11;11.25;;;4.65;;
77089;SDS011;66028;53.558;9.950;2022-12-29T19:12:56;15.68;;;4.53;;
77089;SDS011;66028;53.558;9.950;2022-12-29T19:15:42;13.75;;;4.32;;
77089;SDS011;66028;53.558;9.950;2022-12-29T19:18:30;11.38;;;4.03;;
77089;SDS011;66028;53.558;9.950;2022-12-29T19:21:17;10.15;;;3.53;;
77089;SDS011;66028;53.558;9.950;2022-12-29T19:24:04;12.15;;;3.17;;
77089;SDS011;66028;53.558;9.950;2022-12-29T19:26:50;13.55;;;3.50;;
77089;SDS011;66028;53.558;9.950;2022-12-29T19:29:35;7.78;;;2.53;;
77089;SDS011;66028;53.558;9.950;2022-12-29T19:32:21;10.27;;;3.92;;
77089;SDS011;66028;53.558;9.950;2022-12-29T19:35:07;8.80;;;3.38;;
77089;SDS011;66028;53.558;9.950;2022-12-29T19:37:54;8.10;;;2.65;;
77089;SDS011;66028;53.558;9.950;2022-12-29T19:40:44;8.25;;;2.40;;
77089;SDS011;66028;53.558;9.950;2022-12-29T19:43:32;5.97;;;2.22;;
77089;SDS011;66028;53.558;9.950;2022-12-29T19:46:18;6.10;;;2.40;;
77089;SDS011;66028;53.558;9.950;2022-12-29T19:49:04;6.25;;;2.33;;
77089;SDS011;66028;53.558;9.950;2022-12-29T19:51:50;6.78;;;2.22;;
77089;SDS011;66028;53.558;9.950;2022-12-29T19:54:37;4.00;;;2.00;;
77089;SDS011;66028;53.558;9.950;2022-12-29T19:57:22;8.13;;;3.28;;
77089;SDS011;66028;53.558;9.950;2022-12-29T20:00:09;7.25;;;2.10;;
77089;SDS011;66028;53.558;9.950;2022-12-29T20:02:55;7.72;;;2.65;;
77089;SDS011;66028;53.558;9.950;2022-12-29T20:05:41;6.43;;;2.50;;
77089;SDS011;66028;53.558;9.950;2022-12-29T20:11:18;8.73;;;2.53;;
77089;SDS011;66028;53.558;9.950;2022-12-29T20:14:04;5.50;;;2.30;;
77089;SDS011;66028;53.558;9.950;2022-12-29T20:16:50;6.40;;;2.05;;
77089;SDS011;66028;53.558;9.950;2022-12-29T20:19:36;4.20;;;1.20;;
77089;SDS011;66028;53.558;9.950;2022-12-29T20:22:22;4.63;;;1.42;;
77089;SDS011;66028;53.558;9.950;2022-12-29T20:25:07;5.47;;;1.73;;
77089;SDS011;66028;53.558;9.950;2022-12-29T20:27:53;4.60;;;1.63;;
77089;SDS011;66028;53.558;9.950;2022-12-29T20:30:39;4.20;;;0.98;;
77089;SDS011;66028;53.558;9.950;2022-12-29T20:33:24;2.30;;;1.10;;
77089;SDS011;66028;53.558;9.950;2022-12-29T20:36:12;5.43;;;1.38;;
77089;SDS011;66028;53.558;9.950;2022-12-29T20:39:00;5.05;;;1.05;;
77089;SDS011;66028;53.558;9.950;2022-12-29T20:41:49;2.95;;;0.77;;
77089;SDS011;66028;53.558;9.950;2022-12-29T20:44:35;4.18;;;1.05;;
77089;SDS011;66028;53.558;9.950;2022-12-29T20:47:21;2.70;;;0.50;;
77089;SDS011;66028;53.558;9.950;2022-12-29T20:50:07;5.45;;;1.60;;
77089;SDS011;66028;53.558;9.950;2022-12-29T20:52:53;1.55;;;0.50;;
77089;SDS011;66028;53.558;9.950;2022-12-29T20:55:38;3.67;;;1.30;;
77089;SDS011;66028;53.558;9.950;2022-12-29T20:58:24;4.28;;;1.10;;
77089;SDS011;66028;53.558;9.950;2022-12-29T21:01:11;2.55;;;1.00;;
77089;SDS011;66028;53.558;9.950;2022-12-29T21:03:58;2.95;;;0.93;;
77089;SDS011;66028;53.558;9.950;2022-12-29T21:06:44;3.75;;;1.10;;
77089;SDS011;66028;53.558;9.950;2022-12-29T21:09:29;2.97;;;0.70;;
77089;SDS011;66028;53.558;9.950;2022-12-29T21:12:15;4.93;;;1.10;;
77089;SDS011;66028;53.558;9.950;2022-12-29T21:15:00;3.15;;;0.93;;
77089;SDS011;66028;53.558;9.950;2022-12-29T21:17:46;3.33;;;1.02;;
77089;SDS011;66028;53.558;9.950;2022-12-29T21:20:32;3.22;;;0.70;;
77089;SDS011;66028;53.558;9.950;2022-12-29T21:23:17;2.65;;;0.90;;
77089;SDS011;66028;53.558;9.950;2022-12-29T21:26:10;8.50;;;1.10;;
77089;SDS011;66028;53.558;9.950;2022-12-29T21:28:59;3.22;;;1.00;;
77089;SDS011;66028;53.558;9.950;2022-12-29T21:31:45;4.65;;;0.77;;
77089;SDS011;66028;53.558;9.950;2022-12-29T21:34:32;2.30;;;0.85;;
77089;SDS011;66028;53.558;9.950;2022-12-29T21:37:18;2.88;;;0.57;;
77089;SDS011;66028;53.558;9.950;2022-12-29T21:40:04;2.85;;;0.80;;
77089;SDS011;66028;53.558;9.950;2022-12-29T21:42:50;2.90;;;0.88;;
77089;SDS011;66028;53.558;9.950;2022-12-29T21:45:36;3.83;;;1.10;;
77089;SDS011;66028;53.558;9.950;2022-12-29T21:48:21;6.65;;;1.63;;
77089;SDS011;66028;53.558;9.950;2022-12-29T21:51:11;5.82;;;1.90;;
77089;SDS011;66028;53.558;9.950;2022-12-29T21:54:20;5.65;;;1.42;;
77089;SDS011;66028;53.558;9.950;2022-12-29T22:00:30;4.35;;;1.17;;
77089;SDS011;66028;53.558;9.950;2022-12-29T22:03:36;7.38;;;1.38;;
77089;SDS011;66028;53.558;9.950;2022-12-29T22:06:41;5.03;;;1.88;;
77089;SDS011;66028;53.558;9.950;2022-12-29T22:09:45;5.93;;;1.60;;
77089;SDS011;66028;53.558;9.950;2022-12-29T22:12:49;4.25;;;1.25;;
77089;SDS011;66028;53.558;9.950;2022-12-29T22:15:45;4.93;;;1.50;;
77089;SDS011;66028;53.558;9.950;2022-12-29T22:18:30;4.07;;;1.15;;
77089;SDS011;66028;53.558;9.950;2022-12-29T22:21:16;6.63;;;1.27;;
77089;SDS011;66028;53.558;9.950;2022-12-29T22:24:02;2.90;;;0.90;;
77089;SDS011;66028;53.558;9.950;2022-12-29T22:26:48;3.58;;;0.88;;
77089;SDS011;66028;53.558;9.950;2022-12-29T22:29:34;2.13;;;0.93;;
77089;SDS011;66028;53.558;9.950;2022-12-29T22:32:19;4.50;;;1.58;;
77089;SDS011;66028;53.558;9.950;2022-12-29T22:35:05;3.13;;;0.73;;
77089;SDS011;66028;53.558;9.950;2022-12-29T22:37:51;2.53;;;0.93;;
77089;SDS011;66028;53.558;9.950;2022-12-29T22:40:37;6.47;;;1.92;;
77089;SDS011;66028;53.558;9.950;2022-12-29T22:43:22;4.93;;;1.67;;
77089;SDS011;66028;53.558;9.950;2022-12-29T22:46:08;2.75;;;1.00;;
77089;SDS011;66028;53.558;9.950;2022-12-29T22:48:55;4.95;;;1.33;;
77089;SDS011;66028;53.558;9.950;2022-12-29T22:51:41;8.35;;;1.50;;
77089;SDS011;66028;53.558;9.950;2022-12-29T22:54:26;6.57;;;2.03;;
77089;SDS011;66028;53.558;9.950;2022-12-29T22:57:12;5.78;;;1.77;;
77089;SDS011;66028;53.558;9.950;2022-12-29T22:59:58;5.25;;;1.35;;
77089;SDS011;66028;53.558;9.950;2022-12-29T23:02:43;7.07;;;2.30;;
77089;SDS011;66028;53.558;9.950;2022-12-29T23:05:29;5.28;;;1.77;;
77089;SDS011;66028;53.558;9.950;2022-12-29T23:08:14;5.78;;;1.70;;
77089;SDS011;66028;53.558;9.950;2022-12-29T23:11:00;6.10;;;1.70;;
77089;SDS011;66028;53.558;9.950;2022-12-29T23:13:47;4.28;;;1.83;;
77089;SDS011;66028;53.558;9.950;2022-12-29T23:16:33;7.28;;;2.00;;
77089;SDS011;66028;53.558;9.950;2022-12-29T23:19:18;5.07;;;1.63;;
77089;SDS011;66028;53.558;9.950;2022-12-29T23:22:04;5.35;;;1.55;;
77089;SDS011;66028;53.558;9.950;2022-12-29T23:24:49;2.28;;;1.00;;
77089;SDS011;66028;53.558;9.950;2022-12-29T23:27:35;4.53;;;1.67;;
77089;SDS011;66028;53.558;9.950;2022-12-29T23:30:21;4.50;;;1.40;;
77089;SDS011;66028;53.558;9.950;2022-12-29T23:33:06;7.15;;;2.40;;
77089;SDS011;66028;53.558;9.950;2022-12-29T23:35:52;4.82;;;1.92;;
77089;SDS011;66028;53.558;9.950;2022-12-29T23:38:37;10.13;;;2.67;;
77089;SDS011;66028;53.558;9.950;2022-12-29T23:41:23;9.10;;;2.20;;
77089;SDS011;66028;53.558;9.950;2022-12-29T23:44:09;7.25;;;1.88;;
77089;SDS011;66028;53.558;9.950;2022-12-29T23:46:55;4.80;;;1.90;;
77089;SDS011;66028;53.558;9.950;2022-12-29T23:49:41;11.32;;;2.40;;
77089;SDS011;66028;53.558;9.950;2022-12-29T23:52:26;7.22;;;2.15;;
77089;SDS011;66028;53.558;9.950;2022-12-29T23:55:12;11.05;;;2.10;;
77089;SDS011;66028;53.558;9.950;2022-12-29T23:57:57;8.82;;;2.03;;
